Time;durP1;ratioP1;P1;durP2;ratioP2;P2;SDS_P1;SDS_P2;PMS_P1;PMS_P2;Temp;Humidity;BMP_temperature;BMP_pressure;BME280_temperature;BME280_humidity;BME280_pressure;Samples;Min_cycle;Max_cycle;Signal;HPM_P1;HPM_P2
2022/01/14 00:01:10;;;;;;;9.25;3.40;;;;;;;;;;5073784;28;20040;-68
2022/01/14 00:03:40;;;;;;;7.70;3.45;;;;;;;;;;5055025;28;20060;-69
2022/01/14 00:06:12;;;;;;;12.27;4.90;;;;;;;;;;5071478;28;20404;-67
2022/01/14 00:08:43;;;;;;;11.50;4.85;;;;;;;;;;5051479;28;20052;-68
2022/01/14 00:11:18;;;;;;;8.93;4.65;;;;;;;;;;5007666;28;20058;-68
2022/01/14 00:13:59;;;;;;;7.10;3.58;;;;;;;;;;5011766;28;20058;-68
2022/01/14 00:16:29;;;;;;;7.68;3.97;;;;;;;;;;5011429;28;20057;-69
2022/01/14 00:19:01;;;;;;;10.68;4.18;;;;;;;;;;5011542;28;20054;-69
2022/01/14 00:21:34;;;;;;;11.50;3.88;;;;;;;;;;5011233;28;20097;-69
2022/01/14 00:32:45;;;;;;;7.53;2.92;;;;;;;;;;4958828;28;20063;-67
2022/01/14 00:35:15;;;;;;;8.90;2.97;;;;;;;;;;4943508;28;20070;-69
2022/01/14 00:37:46;;;;;;;10.35;3.00;;;;;;;;;;4943451;28;20093;-69
2022/01/14 00:40:17;;;;;;;14.98;3.28;;;;;;;;;;4991605;28;20069;-69
2022/01/14 00:42:48;;;;;;;6.65;2.80;;;;;;;;;;4943351;28;20050;-69
2022/01/14 00:45:19;;;;;;;5.30;1.75;;;;;;;;;;5011359;28;20050;-68
2022/01/14 00:47:49;;;;;;;8.45;2.47;;;;;;;;;;5035739;28;20112;-67
2022/01/14 00:50:21;;;;;;;7.72;2.45;;;;;;;;;;5072358;28;20041;-69
2022/01/14 00:52:51;;;;;;;5.90;2.67;;;;;;;;;;5071530;28;20048;-69
2022/01/14 00:55:44;;;;;;;7.85;2.88;;;;;;;;;;5072286;28;20492;-70
2022/01/14 01:01:02;;;;;;;12.27;5.00;;;;;;;;;;5072852;28;20051;-69
2022/01/14 01:03:34;;;;;;;9.57;4.40;;;;;;;;;;5072924;28;20048;-69
2022/01/14 01:06:04;;;;;;;8.75;4.18;;;;;;;;;;5037193;28;20056;-69
2022/01/14 01:08:36;;;;;;;12.57;5.85;;;;;;;;;;5053904;28;20060;-67
2022/01/14 01:11:10;;;;;;;14.13;6.25;;;;;;;;;;5068668;28;20056;-70
2022/01/14 01:13:48;;;;;;;10.63;2.97;;;;;;;;;;5072451;28;20041;-70
2022/01/14 01:16:18;;;;;;;17.02;5.95;;;;;;;;;;5071464;28;20408;-69
2022/01/14 01:18:49;;;;;;;8.52;4.13;;;;;;;;;;5030100;28;20053;-70
2022/01/14 01:21:20;;;;;;;16.35;6.80;;;;;;;;;;5052626;28;20040;-70
2022/01/14 01:23:50;;;;;;;14.93;6.57;;;;;;;;;;5052331;28;20064;-70
2022/01/14 01:26:30;;;;;;;19.30;7.13;;;;;;;;;;5052400;28;20055;-69
2022/01/14 01:31:43;;;;;;;15.38;6.00;;;;;;;;;;5006376;28;20139;-68
2022/01/14 01:34:19;;;;;;;12.07;4.47;;;;;;;;;;5064280;28;20056;-67
2022/01/14 01:36:52;;;;;;;13.38;4.00;;;;;;;;;;5029724;28;20049;-69
2022/01/14 01:39:26;;;;;;;11.32;3.97;;;;;;;;;;5029763;28;20053;-68
2022/01/14 01:42:00;;;;;;;9.10;3.42;;;;;;;;;;5013108;28;20401;-68
2022/01/14 01:44:32;;;;;;;9.63;3.40;;;;;;;;;;5009623;28;20050;-66
2022/01/14 01:47:02;;;;;;;5.13;2.53;;;;;;;;;;5009682;28;20066;-67
2022/01/14 01:49:36;;;;;;;9.20;3.00;;;;;;;;;;5009995;28;20054;-67
2022/01/14 01:52:08;;;;;;;10.02;2.85;;;;;;;;;;5009919;28;20058;-68
2022/01/14 01:54:38;;;;;;;9.32;2.83;;;;;;;;;;5009893;28;20590;-66
2022/01/14 01:57:09;;;;;;;7.28;3.00;;;;;;;;;;5009890;28;20058;-65
2022/01/14 01:59:39;;;;;;;6.80;2.72;;;;;;;;;;5009967;28;20054;-68
2022/01/14 02:02:10;;;;;;;4.68;2.63;;;;;;;;;;4960201;28;20058;-67
2022/01/14 02:04:41;;;;;;;10.55;2.88;;;;;;;;;;4993863;28;20061;-68
2022/01/14 02:07:11;;;;;;;7.55;2.65;;;;;;;;;;5009897;28;20061;-68
2022/01/14 02:09:45;;;;;;;8.20;2.72;;;;;;;;;;4963990;28;20069;-68
2022/01/14 02:12:17;;;;;;;6.75;2.75;;;;;;;;;;5036836;28;20532;-68
2022/01/14 02:14:56;;;;;;;10.23;2.85;;;;;;;;;;5025498;28;20438;-67
2022/01/14 02:17:34;;;;;;;7.60;2.95;;;;;;;;;;5038900;28;20048;-66
2022/01/14 02:23:01;;;;;;;6.35;2.85;;;;;;;;;;5069183;28;19927;-67
2022/01/14 02:25:33;;;;;;;8.20;3.03;;;;;;;;;;5056094;28;20059;-65
2022/01/14 02:28:07;;;;;;;11.73;2.78;;;;;;;;;;5091636;28;20063;-66
2022/01/14 02:30:39;;;;;;;7.18;3.05;;;;;;;;;;5091505;28;20044;-65
2022/01/14 02:33:11;;;;;;;7.57;3.08;;;;;;;;;;5109692;28;20044;-67
2022/01/14 02:35:44;;;;;;;10.20;2.85;;;;;;;;;;5068783;28;20542;-68
2022/01/14 02:38:16;;;;;;;12.15;2.83;;;;;;;;;;5004068;28;20051;-68
2022/01/14 02:40:48;;;;;;;8.75;2.80;;;;;;;;;;5048918;28;20061;-67
2022/01/14 02:43:18;;;;;;;5.85;2.53;;;;;;;;;;5048998;28;20529;-67
2022/01/14 02:45:52;;;;;;;11.02;2.55;;;;;;;;;;5009056;28;20046;-68
2022/01/14 02:48:26;;;;;;;8.90;2.85;;;;;;;;;;5009500;28;20529;-67
2022/01/14 02:51:13;;;;;;;13.65;3.03;;;;;;;;;;4929916;28;20069;-68
2022/01/14 02:53:55;;;;;;;14.05;3.33;;;;;;;;;;4993262;28;20050;-67
2022/01/14 02:56:33;;;;;;;8.40;3.00;;;;;;;;;;4976380;28;20585;-68
2022/01/14 02:59:08;;;;;;;11.15;3.13;;;;;;;;;;5008894;28;20042;-68
2022/01/14 03:01:39;;;;;;;5.95;2.70;;;;;;;;;;5009291;28;20057;-66
2022/01/14 03:04:11;;;;;;;8.88;2.70;;;;;;;;;;4993371;28;20517;-67
2022/01/14 03:06:42;;;;;;;10.65;3.05;;;;;;;;;;5020563;28;20535;-67
2022/01/14 03:09:12;;;;;;;8.93;3.30;;;;;;;;;;5049175;28;20053;-68
2022/01/14 03:11:52;;;;;;;8.05;2.78;;;;;;;;;;5015395;28;20056;-69
2022/01/14 03:14:24;;;;;;;10.02;2.85;;;;;;;;;;4979252;28;20050;-67
2022/01/14 03:16:59;;;;;;;6.30;2.97;;;;;;;;;;5012416;28;20084;-68
2022/01/14 03:19:30;;;;;;;5.30;2.38;;;;;;;;;;4997316;28;20065;-68
2022/01/14 03:22:17;;;;;;;11.27;3.25;;;;;;;;;;5012649;28;20054;-67
2022/01/14 03:27:19;;;;;;;7.28;2.42;;;;;;;;;;4992601;28;20046;-68
2022/01/14 03:29:50;;;;;;;6.32;2.42;;;;;;;;;;4961347;28;20081;-68
2022/01/14 03:32:21;;;;;;;11.35;2.50;;;;;;;;;;4976459;28;20054;-67
2022/01/14 03:34:51;;;;;;;8.07;2.63;;;;;;;;;;4988565;28;20058;-67
2022/01/14 03:37:21;;;;;;;9.30;2.70;;;;;;;;;;4973404;28;20082;-67
2022/01/14 03:39:51;;;;;;;6.32;2.70;;;;;;;;;;4973363;28;20047;-68
2022/01/14 03:42:22;;;;;;;6.43;1.92;;;;;;;;;;4973467;28;20066;-67
2022/01/14 03:44:52;;;;;;;5.20;2.08;;;;;;;;;;4972795;28;20055;-66
2022/01/14 03:47:23;;;;;;;7.10;2.35;;;;;;;;;;4949929;28;20075;-67
2022/01/14 03:49:52;;;;;;;5.88;2.17;;;;;;;;;;4931983;28;20496;-67
2022/01/14 03:52:23;;;;;;;5.07;2.22;;;;;;;;;;4931113;28;20046;-66
2022/01/14 03:54:54;;;;;;;5.25;2.33;;;;;;;;;;4992090;28;20088;-67
2022/01/14 03:57:44;;;;;;;5.40;2.20;;;;;;;;;;4992298;28;20059;-67
2022/01/14 04:00:15;;;;;;;6.60;2.53;;;;;;;;;;4992339;28;20058;-66
2022/01/14 04:02:46;;;;;;;5.32;2.13;;;;;;;;;;4993158;28;20071;-68
2022/01/14 04:05:17;;;;;;;4.90;1.90;;;;;;;;;;5033241;28;20057;-67
2022/01/14 04:07:47;;;;;;;9.18;2.20;;;;;;;;;;5071320;28;20045;-67
2022/01/14 04:10:18;;;;;;;8.88;2.80;;;;;;;;;;5031364;28;20056;-66
2022/01/14 04:15:52;;;;;;;5.68;2.00;;;;;;;;;;4991999;28;20080;-66
2022/01/14 04:18:22;;;;;;;4.65;2.30;;;;;;;;;;5011078;28;20093;-67
2022/01/14 04:20:52;;;;;;;4.93;2.20;;;;;;;;;;5011749;28;20058;-69
2022/01/14 04:23:23;;;;;;;6.05;2.15;;;;;;;;;;4995312;28;20061;-68
2022/01/14 04:25:55;;;;;;;6.75;2.05;;;;;;;;;;5027491;28;20049;-70
2022/01/14 04:28:29;;;;;;;6.65;2.20;;;;;;;;;;5030944;28;20476;-67
2022/01/14 04:31:00;;;;;;;6.45;2.47;;;;;;;;;;5030848;28;20049;-66
2022/01/14 04:33:32;;;;;;;11.65;2.55;;;;;;;;;;5030944;28;20049;-66
2022/01/14 04:36:04;;;;;;;5.03;2.05;;;;;;;;;;4997762;28;20453;-66
2022/01/14 04:38:35;;;;;;;9.15;2.25;;;;;;;;;;5030736;28;20061;-66
2022/01/14 04:41:06;;;;;;;7.30;2.60;;;;;;;;;;4991048;28;20046;-67
2022/01/14 04:43:36;;;;;;;9.95;2.40;;;;;;;;;;4991418;28;20058;-66
2022/01/14 04:48:38;;;;;;;7.10;2.47;;;;;;;;;;4991207;28;20054;-66
2022/01/14 04:51:10;;;;;;;6.40;2.17;;;;;;;;;;4987841;28;20053;-66
2022/01/14 04:53:40;;;;;;;9.50;2.72;;;;;;;;;;4993834;28;20057;-65
2022/01/14 04:56:10;;;;;;;8.77;2.45;;;;;;;;;;5033388;28;20064;-66
2022/01/14 04:58:44;;;;;;;9.73;2.85;;;;;;;;;;5050251;28;20064;-66
2022/01/14 05:01:15;;;;;;;10.68;2.78;;;;;;;;;;5017149;28;20053;-67
2022/01/14 05:03:45;;;;;;;7.65;2.47;;;;;;;;;;5050263;28;20045;-66
2022/01/14 05:06:16;;;;;;;10.15;2.30;;;;;;;;;;5010143;28;20046;-66
2022/01/14 05:08:48;;;;;;;11.20;3.45;;;;;;;;;;5010643;28;20058;-64
2022/01/14 05:13:49;;;;;;;6.10;2.83;;;;;;;;;;5010749;28;20049;-65
2022/01/14 05:16:19;;;;;;;15.60;2.55;;;;;;;;;;5010657;28;20050;-66
2022/01/14 05:18:50;;;;;;;12.30;2.55;;;;;;;;;;5013895;28;20088;-66
2022/01/14 05:21:20;;;;;;;12.02;2.65;;;;;;;;;;5030200;28;20509;-66
2022/01/14 05:23:52;;;;;;;12.85;3.13;;;;;;;;;;5030148;28;20501;-66
2022/01/14 05:26:22;;;;;;;12.05;2.63;;;;;;;;;;5030007;28;20041;-67
2022/01/14 05:28:52;;;;;;;10.90;3.10;;;;;;;;;;5009968;28;20061;-65
2022/01/14 05:31:44;;;;;;;7.82;2.58;;;;;;;;;;5009999;28;20050;-66
2022/01/14 05:34:18;;;;;;;9.10;2.63;;;;;;;;;;5010072;28;20066;-66
2022/01/14 05:36:48;;;;;;;10.18;2.53;;;;;;;;;;5010240;28;20062;-66
2022/01/14 05:39:20;;;;;;;8.35;3.78;;;;;;;;;;5010134;28;20053;-66
2022/01/14 05:41:51;;;;;;;11.13;2.65;;;;;;;;;;4939339;28;20051;-66
2022/01/14 05:44:23;;;;;;;10.73;2.90;;;;;;;;;;4997800;28;20054;-66
2022/01/14 05:46:56;;;;;;;15.35;3.10;;;;;;;;;;4993496;28;20054;-67
2022/01/14 05:49:26;;;;;;;11.10;2.80;;;;;;;;;;5009978;28;20057;-65
2022/01/14 05:51:56;;;;;;;12.85;2.58;;;;;;;;;;5010073;28;20041;-66
2022/01/14 05:54:28;;;;;;;8.27;2.92;;;;;;;;;;4976954;28;20049;-66
2022/01/14 05:56:58;;;;;;;8.82;2.63;;;;;;;;;;4961386;28;20045;-65
2022/01/14 05:59:28;;;;;;;10.80;2.70;;;;;;;;;;5009159;28;20049;-67
2022/01/14 06:01:58;;;;;;;9.75;2.53;;;;;;;;;;5009674;28;20517;-66
2022/01/14 06:04:29;;;;;;;5.65;2.50;;;;;;;;;;4977082;28;20081;-66
2022/01/14 06:07:03;;;;;;;5.85;2.15;;;;;;;;;;5037458;28;20053;-67
2022/01/14 06:09:33;;;;;;;13.05;2.75;;;;;;;;;;5049052;28;20049;-67
2022/01/14 06:12:05;;;;;;;8.75;2.65;;;;;;;;;;5049230;28;20057;-66
2022/01/14 06:14:38;;;;;;;10.50;3.20;;;;;;;;;;5032406;28;20064;-66
2022/01/14 06:17:08;;;;;;;8.25;2.80;;;;;;;;;;5049295;28;20481;-66
2022/01/14 06:19:38;;;;;;;11.38;3.30;;;;;;;;;;5072014;28;20048;-66
2022/01/14 06:22:08;;;;;;;11.73;3.03;;;;;;;;;;5089854;28;20451;-66
2022/01/14 06:24:38;;;;;;;11.48;2.58;;;;;;;;;;5089133;28;20052;-66
2022/01/14 06:27:09;;;;;;;9.55;3.30;;;;;;;;;;5072752;28;20048;-66
2022/01/14 06:29:39;;;;;;;6.90;2.97;;;;;;;;;;5072644;28;20048;-66
2022/01/14 06:32:09;;;;;;;5.90;2.63;;;;;;;;;;5089169;28;20063;-66
2022/01/14 06:34:39;;;;;;;8.82;3.13;;;;;;;;;;5089270;28;20411;-67
2022/01/14 06:37:10;;;;;;;6.75;2.72;;;;;;;;;;5090393;28;20064;-66
2022/01/14 06:39:40;;;;;;;10.48;3.33;;;;;;;;;;5072853;28;20064;-66
2022/01/14 06:42:10;;;;;;;7.57;3.25;;;;;;;;;;5090717;28;20070;-68
2022/01/14 06:44:40;;;;;;;10.35;2.85;;;;;;;;;;5091637;28;20044;-67
2022/01/14 06:47:11;;;;;;;6.00;2.72;;;;;;;;;;5072702;28;20059;-66
2022/01/14 06:49:41;;;;;;;8.15;3.08;;;;;;;;;;5093891;28;20036;-66
2022/01/14 06:52:11;;;;;;;7.72;3.13;;;;;;;;;;5095367;28;20043;-66
2022/01/14 06:54:42;;;;;;;7.25;2.55;;;;;;;;;;5095352;28;20044;-67
2022/01/14 06:57:12;;;;;;;7.07;2.88;;;;;;;;;;5095427;28;20054;-67
2022/01/14 06:59:43;;;;;;;6.38;2.72;;;;;;;;;;5076409;28;20056;-67
2022/01/14 07:02:13;;;;;;;9.35;3.08;;;;;;;;;;5095096;28;20052;-66
2022/01/14 07:04:43;;;;;;;7.63;3.03;;;;;;;;;;5095116;28;20411;-67
2022/01/14 07:07:14;;;;;;;9.48;2.63;;;;;;;;;;5094888;28;20062;-66
2022/01/14 07:09:57;;;;;;;14.02;3.05;;;;;;;;;;5094973;28;20044;-66
2022/01/14 07:12:33;;;;;;;10.23;3.70;;;;;;;;;;5064386;28;20057;-66
2022/01/14 07:15:06;;;;;;;7.15;2.42;;;;;;;;;;5094084;28;20048;-66
2022/01/14 07:17:37;;;;;;;6.90;2.60;;;;;;;;;;5094945;28;20066;-66
2022/01/14 07:20:12;;;;;;;12.82;2.92;;;;;;;;;;5094941;28;20502;-66
2022/01/14 07:22:46;;;;;;;5.88;2.97;;;;;;;;;;5094898;28;20048;-66
2022/01/14 07:25:19;;;;;;;5.68;2.78;;;;;;;;;;5094531;28;20044;-66
2022/01/14 07:27:50;;;;;;;6.43;3.05;;;;;;;;;;5058941;28;20075;-66
2022/01/14 07:30:23;;;;;;;11.52;2.60;;;;;;;;;;5093743;28;20048;-66
2022/01/14 07:32:53;;;;;;;4.85;2.35;;;;;;;;;;5110589;28;20507;-66
2022/01/14 07:35:23;;;;;;;7.90;2.35;;;;;;;;;;5114935;28;20044;-66
2022/01/14 07:37:53;;;;;;;7.18;2.92;;;;;;;;;;5097216;28;20043;-66
2022/01/14 07:40:24;;;;;;;7.35;2.47;;;;;;;;;;5038862;28;20063;-66
2022/01/14 07:42:54;;;;;;;8.93;2.88;;;;;;;;;;5055461;28;20079;-67
2022/01/14 07:45:24;;;;;;;8.40;2.97;;;;;;;;;;5021773;28;20060;-66
2022/01/14 07:47:54;;;;;;;7.68;2.85;;;;;;;;;;5071806;28;20042;-66
2022/01/14 07:50:30;;;;;;;10.10;2.80;;;;;;;;;;5040553;28;20052;-66
2022/01/14 07:53:01;;;;;;;9.27;2.97;;;;;;;;;;5071766;28;20059;-66
2022/01/14 07:55:32;;;;;;;13.60;3.17;;;;;;;;;;5011552;28;20045;-66
2022/01/14 07:58:04;;;;;;;9.55;3.15;;;;;;;;;;5012170;28;20178;-66
2022/01/14 08:00:36;;;;;;;7.20;2.60;;;;;;;;;;4995329;28;20054;-67
2022/01/14 08:03:07;;;;;;;9.00;2.67;;;;;;;;;;4995810;28;20080;-66
2022/01/14 08:05:37;;;;;;;10.00;3.22;;;;;;;;;;5011947;28;20058;-66
2022/01/14 08:08:08;;;;;;;6.03;3.40;;;;;;;;;;5011714;28;20050;-66
2022/01/14 08:10:38;;;;;;;8.38;2.90;;;;;;;;;;5016593;28;20046;-67
2022/01/14 08:13:08;;;;;;;9.13;3.03;;;;;;;;;;5051441;28;20448;-65
2022/01/14 08:15:39;;;;;;;6.75;2.88;;;;;;;;;;5051288;28;20040;-66
2022/01/14 08:18:09;;;;;;;10.55;3.25;;;;;;;;;;4991844;28;20521;-66
2022/01/14 08:20:39;;;;;;;8.82;3.17;;;;;;;;;;4992064;28;20058;-66
2022/01/14 08:23:10;;;;;;;6.97;3.17;;;;;;;;;;4972292;28;20066;-66
2022/01/14 08:25:40;;;;;;;7.22;2.90;;;;;;;;;;4972422;28;20062;-66
2022/01/14 08:28:11;;;;;;;11.70;3.28;;;;;;;;;;4972222;28;20070;-66
2022/01/14 08:30:41;;;;;;;10.07;3.22;;;;;;;;;;4972507;28;20059;-66
2022/01/14 08:33:12;;;;;;;13.10;2.67;;;;;;;;;;5001976;28;20056;-68
2022/01/14 08:35:44;;;;;;;10.98;3.10;;;;;;;;;;5030794;28;20794;-66
2022/01/14 08:38:15;;;;;;;7.65;3.90;;;;;;;;;;5030840;28;20061;-66
2022/01/14 08:40:45;;;;;;;10.43;3.28;;;;;;;;;;5030783;28;20061;-67
2022/01/14 08:43:19;;;;;;;14.35;3.72;;;;;;;;;;5030862;28;20069;-66
2022/01/14 08:45:50;;;;;;;10.52;3.80;;;;;;;;;;4994179;28;20054;-66
2022/01/14 08:48:21;;;;;;;7.78;3.22;;;;;;;;;;4994733;28;20058;-66
2022/01/14 08:50:52;;;;;;;7.38;3.13;;;;;;;;;;4975367;28;20054;-66
2022/01/14 08:53:22;;;;;;;10.32;3.13;;;;;;;;;;4991170;28;20051;-66
2022/01/14 08:55:52;;;;;;;12.32;3.33;;;;;;;;;;5012885;28;20061;-66
2022/01/14 08:58:23;;;;;;;9.85;2.83;;;;;;;;;;5030480;28;20056;-66
2022/01/14 09:00:53;;;;;;;9.70;3.17;;;;;;;;;;5041568;28;20061;-66
2022/01/14 09:03:23;;;;;;;10.30;2.95;;;;;;;;;;5033948;28;20065;-66
2022/01/14 09:05:54;;;;;;;8.40;3.05;;;;;;;;;;5050299;28;20065;-66
2022/01/14 09:08:24;;;;;;;9.90;3.13;;;;;;;;;;5010135;28;20046;-66
2022/01/14 09:10:55;;;;;;;8.23;2.95;;;;;;;;;;5010273;28;20054;-65
2022/01/14 09:13:25;;;;;;;6.28;2.80;;;;;;;;;;4989787;28;20068;-67
2022/01/14 09:15:56;;;;;;;7.25;3.28;;;;;;;;;;4992447;28;20577;-66
2022/01/14 09:18:27;;;;;;;11.90;2.97;;;;;;;;;;5010780;28;20457;-67
2022/01/14 09:20:58;;;;;;;11.75;4.13;;;;;;;;;;4963605;28;20077;-67
2022/01/14 09:23:29;;;;;;;5.25;2.33;;;;;;;;;;5030139;28;20429;-66
2022/01/14 09:25:59;;;;;;;8.80;3.00;;;;;;;;;;4998145;28;20425;-68
2022/01/14 09:28:30;;;;;;;6.88;2.58;;;;;;;;;;5029537;28;20041;-67
2022/01/14 09:31:01;;;;;;;11.73;2.83;;;;;;;;;;5029896;28;20041;-64
2022/01/14 09:33:32;;;;;;;5.97;2.95;;;;;;;;;;5030010;28;20509;-66
2022/01/14 09:36:01;;;;;;;7.63;3.35;;;;;;;;;;4992269;28;20053;-66
2022/01/14 09:38:33;;;;;;;7.65;3.22;;;;;;;;;;5028189;28;20049;-66
2022/01/14 09:41:08;;;;;;;15.30;3.20;;;;;;;;;;5012178;28;20037;-66
2022/01/14 09:43:39;;;;;;;9.50;2.97;;;;;;;;;;5027797;28;20161;-66
2022/01/14 09:46:10;;;;;;;11.93;3.42;;;;;;;;;;5059096;28;20046;-68
2022/01/14 09:48:42;;;;;;;12.70;3.50;;;;;;;;;;5032855;28;20515;-67
2022/01/14 09:51:13;;;;;;;8.25;3.72;;;;;;;;;;5095310;28;20380;-67
2022/01/14 09:53:43;;;;;;;6.70;3.03;;;;;;;;;;5040471;28;20067;-66
2022/01/14 09:56:21;;;;;;;10.25;3.28;;;;;;;;;;5102669;28;20483;-67
2022/01/14 09:58:52;;;;;;;9.73;3.63;;;;;;;;;;5112856;28;20052;-66
2022/01/14 10:01:24;;;;;;;10.73;3.33;;;;;;;;;;5094752;28;20494;-67
2022/01/14 10:04:01;;;;;;;6.22;2.75;;;;;;;;;;5105238;28;20047;-68
2022/01/14 10:06:49;;;;;;;8.95;2.92;;;;;;;;;;5094122;28;20375;-67
2022/01/14 10:09:38;;;;;;;7.95;3.22;;;;;;;;;;5111987;28;20050;-66
2022/01/14 10:12:13;;;;;;;7.95;2.63;;;;;;;;;;5111655;28;20039;-66
2022/01/14 10:14:55;;;;;;;6.22;2.55;;;;;;;;;;5100041;28;20054;-66
2022/01/14 10:17:35;;;;;;;6.90;2.25;;;;;;;;;;5100898;28;20043;-66
2022/01/14 10:20:08;;;;;;;6.03;2.88;;;;;;;;;;5052749;28;20063;-67
2022/01/14 10:22:46;;;;;;;9.38;2.92;;;;;;;;;;5048778;28;20041;-67
2022/01/14 10:25:21;;;;;;;3.75;2.25;;;;;;;;;;5062906;28;20060;-67
2022/01/14 10:27:55;;;;;;;5.88;2.60;;;;;;;;;;5073257;28;20535;-64
2022/01/14 10:30:34;;;;;;;4.82;1.92;;;;;;;;;;5072739;28;20056;-67
2022/01/14 10:33:10;;;;;;;5.40;2.33;;;;;;;;;;5072888;28;20072;-68
2022/01/14 10:35:46;;;;;;;4.32;1.92;;;;;;;;;;5023662;28;20060;-69
2022/01/14 10:38:19;;;;;;;5.20;2.50;;;;;;;;;;4999382;28;20052;-68
2022/01/14 10:40:58;;;;;;;5.57;1.83;;;;;;;;;;5017050;28;20076;-66
2022/01/14 10:43:35;;;;;;;4.40;1.83;;;;;;;;;;5039050;28;20057;-67
2022/01/14 10:46:10;;;;;;;3.22;1.52;;;;;;;;;;5041493;28;20490;-69
2022/01/14 10:48:43;;;;;;;5.72;1.65;;;;;;;;;;5048809;28;20040;-68
2022/01/14 10:51:18;;;;;;;4.60;1.38;;;;;;;;;;4993146;28;20125;-68
2022/01/14 10:53:54;;;;;;;3.95;1.33;;;;;;;;;;4938792;28;20056;-66
2022/01/14 10:56:28;;;;;;;2.63;1.17;;;;;;;;;;4923099;28;20059;-67
2022/01/14 10:58:59;;;;;;;2.22;1.27;;;;;;;;;;4938525;28;20043;-66
2022/01/14 11:01:33;;;;;;;4.13;1.42;;;;;;;;;;4974198;28;20051;-67
2022/01/14 11:04:14;;;;;;;2.20;1.42;;;;;;;;;;4973572;28;20051;-68
2022/01/14 11:06:44;;;;;;;4.65;1.77;;;;;;;;;;4973993;28;20167;-67
2022/01/14 11:09:18;;;;;;;4.25;1.70;;;;;;;;;;4973726;28;20494;-69
2022/01/14 11:11:50;;;;;;;3.40;1.45;;;;;;;;;;4973586;28;20498;-71
2022/01/14 11:14:21;;;;;;;2.65;1.70;;;;;;;;;;4962350;28;20047;-69
2022/01/14 11:16:52;;;;;;;4.50;1.42;;;;;;;;;;4972480;28;20058;-65
2022/01/14 11:19:24;;;;;;;2.00;1.13;;;;;;;;;;4944978;28;20062;-66
2022/01/14 11:24:47;;;;;;;3.15;1.42;;;;;;;;;;4976447;28;20050;-65
2022/01/14 11:27:19;;;;;;;4.30;1.40;;;;;;;;;;4981065;28;20051;-67
2022/01/14 11:29:51;;;;;;;;;;;;;;;;;;5008369;28;20058;-67
2022/01/14 11:32:21;;;;;;;2.50;1.40;;;;;;;;;;5012069;28;19921;-68
2022/01/14 11:34:52;;;;;;;2.50;1.35;;;;;;;;;;5011866;28;20054;-66
2022/01/14 11:37:34;;;;;;;2.55;1.13;;;;;;;;;;4996431;28;20069;-65
2022/01/14 11:40:08;;;;;;;4.20;1.30;;;;;;;;;;5030091;28;20052;-65
2022/01/14 11:43:02;;;;;;;3.15;1.10;;;;;;;;;;5092722;28;20044;-66
2022/01/14 11:45:48;;;;;;;6.60;1.55;;;;;;;;;;5058968;28;20055;-66
2022/01/14 11:48:48;;;;;;;3.70;1.02;;;;;;;;;;5094211;28;20055;-66
2022/01/14 11:51:19;;;;;;;4.47;1.13;;;;;;;;;;4992392;28;20065;-67
2022/01/14 11:53:54;;;;;;;4.13;1.27;;;;;;;;;;4992196;28;20054;-69
2022/01/14 11:56:34;;;;;;;3.88;1.10;;;;;;;;;;4949797;29;20052;-67
2022/01/14 11:59:22;;;;;;;0.95;0.77;;;;;;;;;;4934624;29;20060;-68
2022/01/14 12:01:55;;;;;;;4.25;1.17;;;;;;;;;;4934397;29;20059;-66
2022/01/14 12:05:02;;;;;;;1.38;1.00;;;;;;;;;;4918996;29;20059;-68
2022/01/14 12:10:42;;;;;;;8.85;1.52;;;;;;;;;;4880257;29;20059;-69
2022/01/14 12:13:30;;;;;;;3.53;0.93;;;;;;;;;;4896131;29;20076;-69
2022/01/14 12:16:07;;;;;;;4.57;1.10;;;;;;;;;;4880318;29;20064;-66
2022/01/14 12:18:52;;;;;;;2.85;1.15;;;;;;;;;;4896034;29;20056;-66
2022/01/14 12:21:44;;;;;;;1.45;1.00;;;;;;;;;;4896199;29;20541;-67
2022/01/14 12:24:27;;;;;;;3.40;0.98;;;;;;;;;;4877791;29;20053;-67
2022/01/14 12:27:12;;;;;;;2.92;1.02;;;;;;;;;;4882837;29;20052;-65
2022/01/14 12:29:49;;;;;;;3.50;0.93;;;;;;;;;;4991789;28;20055;-64
2022/01/14 12:32:19;;;;;;;2.78;0.90;;;;;;;;;;4991530;28;20054;-64
2022/01/14 12:34:49;;;;;;;5.60;1.15;;;;;;;;;;4992102;28;20050;-64
2022/01/14 12:37:31;;;;;;;1.00;0.70;;;;;;;;;;4992222;28;20069;-64
2022/01/14 12:40:11;;;;;;;3.25;0.82;;;;;;;;;;4973588;28;20061;-63
2022/01/14 12:42:53;;;;;;;1.50;0.73;;;;;;;;;;5011277;28;20049;-66
2022/01/14 12:45:31;;;;;;;1.60;1.02;;;;;;;;;;4990034;28;20069;-63
2022/01/14 12:48:17;;;;;;;2.05;0.73;;;;;;;;;;5025016;28;20521;-64
2022/01/14 12:50:48;;;;;;;4.30;1.05;;;;;;;;;;5039832;28;20045;-65
2022/01/14 12:53:20;;;;;;;2.53;0.52;;;;;;;;;;4998652;28;20046;-68
2022/01/14 12:55:52;;;;;;;1.52;0.73;;;;;;;;;;5000010;28;20062;-66
2022/01/14 12:58:22;;;;;;;1.52;0.70;;;;;;;;;;4999270;28;20433;-66
2022/01/14 13:00:53;;;;;;;1.30;0.60;;;;;;;;;;4998221;28;20072;-67
2022/01/14 13:03:23;;;;;;;2.05;0.43;;;;;;;;;;5001638;28;20054;-65
2022/01/14 13:06:03;;;;;;;1.23;0.45;;;;;;;;;;5010798;28;20049;-65
2022/01/14 13:08:33;;;;;;;4.35;0.55;;;;;;;;;;4977995;28;20546;-67
2022/01/14 13:11:06;;;;;;;3.63;0.52;;;;;;;;;;5010699;28;20057;-65
2022/01/14 13:13:37;;;;;;;1.73;0.32;;;;;;;;;;4993879;28;20057;-67
2022/01/14 13:16:07;;;;;;;0.63;0.40;;;;;;;;;;5001300;28;20627;-68
2022/01/14 13:18:44;;;;;;;1.17;0.43;;;;;;;;;;4963469;28;20407;-67
2022/01/14 13:21:15;;;;;;;3.95;0.70;;;;;;;;;;5029814;28;20610;-68
2022/01/14 13:23:48;;;;;;;1.67;0.70;;;;;;;;;;5029940;28;20572;-67
2022/01/14 13:26:19;;;;;;;11.27;0.73;;;;;;;;;;5029940;28;20061;-66
2022/01/14 13:28:49;;;;;;;2.58;0.30;;;;;;;;;;5023292;28;20067;-66
2022/01/14 13:31:19;;;;;;;2.53;0.52;;;;;;;;;;5029303;28;20481;-69
2022/01/14 13:33:50;;;;;;;2.33;0.32;;;;;;;;;;5029382;28;20421;-65
2022/01/14 13:36:23;;;;;;;0.77;0.43;;;;;;;;;;5013164;28;20103;-66
2022/01/14 13:39:12;;;;;;;3.22;0.65;;;;;;;;;;5028941;28;20061;-67
2022/01/14 13:41:43;;;;;;;3.80;0.60;;;;;;;;;;5029948;28;20046;-67
2022/01/14 13:44:21;;;;;;;2.90;0.50;;;;;;;;;;5013700;28;20061;-66
2022/01/14 13:46:59;;;;;;;3.00;0.30;;;;;;;;;;4966053;28;20057;-64
2022/01/14 13:49:29;;;;;;;;;;;;;;;;;;5013761;28;20076;-67
2022/01/14 13:52:07;;;;;;;1.98;0.43;;;;;;;;;;5013267;28;19928;-68
2022/01/14 13:54:37;;;;;;;;;;;;;;;;;;4981264;28;20096;-69
2022/01/14 13:57:14;;;;;;;2.47;0.73;;;;;;;;;;5029687;28;19964;-64
2022/01/14 13:59:44;;;;;;;4.10;0.73;;;;;;;;;;5046661;28;20519;-63
2022/01/14 14:02:28;;;;;;;7.93;0.65;;;;;;;;;;5053503;28;20057;-64
2022/01/14 14:04:59;;;;;;;2.75;0.80;;;;;;;;;;5069814;28;20041;-64
2022/01/14 14:07:43;;;;;;;1.70;0.43;;;;;;;;;;5053147;28;20044;-68
2022/01/14 14:10:33;;;;;;;3.50;0.47;;;;;;;;;;5053071;28;20052;-63
2022/01/14 14:13:18;;;;;;;4.28;0.50;;;;;;;;;;5071928;28;20051;-65
2022/01/14 14:15:50;;;;;;;1.45;0.63;;;;;;;;;;5071797;28;20051;-64
2022/01/14 14:18:22;;;;;;;3.30;0.60;;;;;;;;;;5071930;28;20044;-67
2022/01/14 14:20:52;;;;;;;4.72;0.70;;;;;;;;;;5071818;28;20115;-70
2022/01/14 14:23:24;;;;;;;2.08;0.85;;;;;;;;;;5070510;28;20048;-68
2022/01/14 14:26:00;;;;;;;1.27;0.80;;;;;;;;;;5071605;28;20044;-63
2022/01/14 14:28:30;;;;;;;2.63;0.60;;;;;;;;;;5038134;28;20049;-71
2022/01/14 14:31:00;;;;;;;11.32;0.80;;;;;;;;;;5051759;28;20488;-63
2022/01/14 14:33:30;;;;;;;1.15;0.38;;;;;;;;;;5068991;28;20056;-67
2022/01/14 14:36:01;;;;;;;0.98;0.50;;;;;;;;;;5052650;28;20386;-70
2022/01/14 14:38:31;;;;;;;2.63;0.60;;;;;;;;;;4993335;28;20109;-68
2022/01/14 14:41:21;;;;;;;2.30;0.73;;;;;;;;;;5006878;28;20058;-67
2022/01/14 14:43:54;;;;;;;1.77;0.60;;;;;;;;;;5008846;28;20433;-65
2022/01/14 14:46:26;;;;;;;2.83;0.50;;;;;;;;;;4999714;28;20060;-65
2022/01/14 14:48:56;;;;;;;1.60;0.45;;;;;;;;;;4989419;28;20534;-67
2022/01/14 14:51:26;;;;;;;3.47;0.57;;;;;;;;;;4977670;28;20157;-68
2022/01/14 14:53:56;;;;;;;3.00;0.80;;;;;;;;;;5002192;28;20061;-67
2022/01/14 14:56:27;;;;;;;1.25;0.40;;;;;;;;;;4922385;28;20065;-66
2022/01/14 14:58:57;;;;;;;1.45;0.52;;;;;;;;;;4970561;28;20050;-67
2022/01/14 15:01:27;;;;;;;2.08;0.57;;;;;;;;;;4970405;28;20066;-71
2022/01/14 15:03:58;;;;;;;2.95;0.52;;;;;;;;;;4970273;28;20538;-65
2022/01/14 15:06:29;;;;;;;0.95;0.47;;;;;;;;;;4969967;28;20053;-66
2022/01/14 15:08:59;;;;;;;2.88;0.60;;;;;;;;;;4938232;28;20503;-73
2022/01/14 15:11:30;;;;;;;3.45;0.65;;;;;;;;;;4973384;28;20065;-65
2022/01/14 15:14:00;;;;;;;1.48;0.40;;;;;;;;;;4941736;28;20066;-66
2022/01/14 15:19:20;;;;;;;0.80;0.35;;;;;;;;;;5016054;28;20057;-66
2022/01/14 15:21:51;;;;;;;2.55;0.55;;;;;;;;;;5032583;28;20077;-63
2022/01/14 15:24:21;;;;;;;0.90;0.52;;;;;;;;;;5032658;28;20054;-67
2022/01/14 15:26:51;;;;;;;7.93;0.65;;;;;;;;;;5024102;28;20055;-65
2022/01/14 15:29:22;;;;;;;2.20;0.50;;;;;;;;;;5072323;28;20056;-65
2022/01/14 15:31:52;;;;;;;2.42;0.43;;;;;;;;;;5072177;28;20500;-67
2022/01/14 15:34:23;;;;;;;0.60;0.40;;;;;;;;;;5072244;28;20408;-65
2022/01/14 15:36:53;;;;;;;2.25;0.60;;;;;;;;;;5023320;28;20063;-66
2022/01/14 15:39:26;;;;;;;0.75;0.50;;;;;;;;;;5074407;28;20381;-67
2022/01/14 15:41:56;;;;;;;0.90;0.50;;;;;;;;;;5055755;28;20377;-63
2022/01/14 15:44:27;;;;;;;1.65;0.55;;;;;;;;;;5074410;28;20049;-67
2022/01/14 15:46:57;;;;;;;1.95;0.70;;;;;;;;;;5018390;28;20045;-66
2022/01/14 15:49:41;;;;;;;1.88;0.75;;;;;;;;;;5031403;28;20056;-63
2022/01/14 15:52:11;;;;;;;;;;;;;;;;;;5032179;28;20054;-66